sensor_id;sensor_type;location;lat;lon;timestamp;temperature;humidity
53282;DHT22;39167;52.794;6.892;2023-03-01T00:01:27;1.00;99.90
53282;DHT22;39167;52.794;6.892;2023-03-01T00:03:54;-0.60;99.90
53282;DHT22;39167;52.794;6.892;2023-03-01T00:06:21;1.00;99.90
53282;DHT22;39167;52.794;6.892;2023-03-01T00:08:47;0.60;99.90
53282;DHT22;39167;52.794;6.892;2023-03-01T00:11:15;0.90;99.90
53282;DHT22;39167;52.794;6.892;2023-03-01T00:13:43;-0.60;99.90
53282;DHT22;39167;52.794;6.892;2023-03-01T00:16:12;0.70;99.90
53282;DHT22;39167;52.794;6.892;2023-03-01T00:18:38;-0.70;99.90
53282;DHT22;39167;52.794;6.892;2023-03-01T00:21:04;0.60;99.90
53282;DHT22;39167;52.794;6.892;2023-03-01T00:23:31;0.30;99.90
53282;DHT22;39167;52.794;6.892;2023-03-01T00:25:57;0.40;99.90
53282;DHT22;39167;52.794;6.892;2023-03-01T00:28:23;-0.70;99.90
53282;DHT22;39167;52.794;6.892;2023-03-01T00:30:49;-0.70;99.90
53282;DHT22;39167;52.794;6.892;2023-03-01T00:33:14;0.90;99.90
53282;DHT22;39167;52.794;6.892;2023-03-01T00:35:40;0.50;99.90
53282;DHT22;39167;52.794;6.892;2023-03-01T00:38:06;-0.80;99.90
53282;DHT22;39167;52.794;6.892;2023-03-01T00:40:33;0.80;99.90
53282;DHT22;39167;52.794;6.892;2023-03-01T00:42:59;0.60;99.90
53282;DHT22;39167;52.794;6.892;2023-03-01T00:45:25;-0.80;99.90
53282;DHT22;39167;52.794;6.892;2023-03-01T00:47:51;0.50;99.90
53282;DHT22;39167;52.794;6.892;2023-03-01T00:50:20;0.00;99.90
53282;DHT22;39167;52.794;6.892;2023-03-01T00:52:45;0.10;99.90
53282;DHT22;39167;52.794;6.892;2023-03-01T00:55:12;0.50;99.90
53282;DHT22;39167;52.794;6.892;2023-03-01T00:57:38;0.50;99.90
53282;DHT22;39167;52.794;6.892;2023-03-01T01:00:07;0.30;99.90
53282;DHT22;39167;52.794;6.892;2023-03-01T01:02:35;-1.00;99.90
53282;DHT22;39167;52.794;6.892;2023-03-01T01:05:01;-1.00;99.90
53282;DHT22;39167;52.794;6.892;2023-03-01T01:07:27;-1.00;99.90
53282;DHT22;39167;52.794;6.892;2023-03-01T01:09:53;-0.30;99.90
53282;DHT22;39167;52.794;6.892;2023-03-01T01:12:18;0.40;99.90
53282;DHT22;39167;52.794;6.892;2023-03-01T01:14:44;0.40;99.90
53282;DHT22;39167;52.794;6.892;2023-03-01T01:17:10;0.10;99.90
53282;DHT22;39167;52.794;6.892;2023-03-01T01:19:36;-1.20;99.90
53282;DHT22;39167;52.794;6.892;2023-03-01T01:22:01;0.50;99.90
53282;DHT22;39167;52.794;6.892;2023-03-01T01:24:27;0.40;99.90
53282;DHT22;39167;52.794;6.892;2023-03-01T01:26:53;-0.20;99.90
53282;DHT22;39167;52.794;6.892;2023-03-01T01:29:19;-0.10;99.90
53282;DHT22;39167;52.794;6.892;2023-03-01T01:31:45;-0.30;99.90
53282;DHT22;39167;52.794;6.892;2023-03-01T01:34:20;-1.20;99.90
53282;DHT22;39167;52.794;6.892;2023-03-01T01:36:51;-0.50;99.90
53282;DHT22;39167;52.794;6.892;2023-03-01T01:39:18;-0.90;99.90
53282;DHT22;39167;52.794;6.892;2023-03-01T01:41:44;0.10;99.90
53282;DHT22;39167;52.794;6.892;2023-03-01T01:44:22;0.20;99.90
53282;DHT22;39167;52.794;6.892;2023-03-01T01:47:05;-0.10;99.90
53282;DHT22;39167;52.794;6.892;2023-03-01T01:49:38;0.20;99.90
53282;DHT22;39167;52.794;6.892;2023-03-01T01:52:19;-1.30;99.90
53282;DHT22;39167;52.794;6.892;2023-03-01T01:55:11;-1.40;99.90
53282;DHT22;39167;52.794;6.892;2023-03-01T01:57:43;-1.40;99.90
53282;DHT22;39167;52.794;6.892;2023-03-01T02:02:42;-1.40;99.90
53282;DHT22;39167;52.794;6.892;2023-03-01T02:08:03;-1.40;99.90
53282;DHT22;39167;52.794;6.892;2023-03-01T02:10:29;0.20;99.90
53282;DHT22;39167;52.794;6.892;2023-03-01T02:12:58;-1.60;99.90
53282;DHT22;39167;52.794;6.892;2023-03-01T02:15:25;-1.50;99.90
53282;DHT22;39167;52.794;6.892;2023-03-01T02:17:53;-1.50;99.90
53282;DHT22;39167;52.794;6.892;2023-03-01T02:20:25;-1.50;99.90
53282;DHT22;39167;52.794;6.892;2023-03-01T02:22:53;-1.50;99.90
53282;DHT22;39167;52.794;6.892;2023-03-01T02:30:44;-0.10;99.90
53282;DHT22;39167;52.794;6.892;2023-03-01T02:33:32;-1.60;99.90
53282;DHT22;39167;52.794;6.892;2023-03-01T02:36:12;-1.60;99.90
53282;DHT22;39167;52.794;6.892;2023-03-01T02:38:41;-1.60;99.90
53282;DHT22;39167;52.794;6.892;2023-03-01T02:41:08;-1.70;99.90
53282;DHT22;39167;52.794;6.892;2023-03-01T02:43:35;-0.20;99.90
53282;DHT22;39167;52.794;6.892;2023-03-01T02:46:13;-0.30;99.90
53282;DHT22;39167;52.794;6.892;2023-03-01T02:48:46;-0.10;99.90
53282;DHT22;39167;52.794;6.892;2023-03-01T02:56:53;-1.80;99.90
53282;DHT22;39167;52.794;6.892;2023-03-01T02:59:22;-0.20;99.90
53282;DHT22;39167;52.794;6.892;2023-03-01T03:01:49;-0.30;99.90
53282;DHT22;39167;52.794;6.892;2023-03-01T03:04:17;-1.80;99.90
53282;DHT22;39167;52.794;6.892;2023-03-01T03:06:48;-1.80;99.90
53282;DHT22;39167;52.794;6.892;2023-03-01T03:09:15;-0.30;99.90
53282;DHT22;39167;52.794;6.892;2023-03-01T03:11:41;-1.80;99.90
53282;DHT22;39167;52.794;6.892;2023-03-01T03:14:14;-1.80;99.90
53282;DHT22;39167;52.794;6.892;2023-03-01T03:16:42;-1.90;99.90
53282;DHT22;39167;52.794;6.892;2023-03-01T03:19:08;-0.40;99.90
53282;DHT22;39167;52.794;6.892;2023-03-01T03:21:34;-2.00;99.90
53282;DHT22;39167;52.794;6.892;2023-03-01T03:24:00;-0.90;99.90
53282;DHT22;39167;52.794;6.892;2023-03-01T03:26:26;-0.30;99.90
53282;DHT22;39167;52.794;6.892;2023-03-01T03:28:52;-0.50;99.90
53282;DHT22;39167;52.794;6.892;2023-03-01T03:31:18;-0.50;99.90
53282;DHT22;39167;52.794;6.892;2023-03-01T03:33:43;-0.30;99.90
53282;DHT22;39167;52.794;6.892;2023-03-01T03:36:09;-0.50;99.90
53282;DHT22;39167;52.794;6.892;2023-03-01T03:38:39;-2.00;99.90
53282;DHT22;39167;52.794;6.892;2023-03-01T03:41:07;-2.10;99.90
53282;DHT22;39167;52.794;6.892;2023-03-01T03:43:37;-2.00;99.90
53282;DHT22;39167;52.794;6.892;2023-03-01T03:46:04;-1.50;99.90
53282;DHT22;39167;52.794;6.892;2023-03-01T03:48:33;-1.10;99.90
53282;DHT22;39167;52.794;6.892;2023-03-01T03:50:59;-2.10;99.90
53282;DHT22;39167;52.794;6.892;2023-03-01T03:53:27;-2.10;99.90
53282;DHT22;39167;52.794;6.892;2023-03-01T03:55:53;-0.60;99.90
53282;DHT22;39167;52.794;6.892;2023-03-01T03:58:22;-1.00;99.90
53282;DHT22;39167;52.794;6.892;2023-03-01T04:00:51;-0.50;99.90
53282;DHT22;39167;52.794;6.892;2023-03-01T04:03:18;-0.80;99.90
53282;DHT22;39167;52.794;6.892;2023-03-01T04:05:44;-2.20;99.90
53282;DHT22;39167;52.794;6.892;2023-03-01T04:08:11;-1.20;99.90
53282;DHT22;39167;52.794;6.892;2023-03-01T04:10:44;-1.00;99.90
53282;DHT22;39167;52.794;6.892;2023-03-01T04:13:12;-2.20;99.90
53282;DHT22;39167;52.794;6.892;2023-03-01T04:15:39;-2.20;99.90
53282;DHT22;39167;52.794;6.892;2023-03-01T04:18:06;-0.70;99.90
53282;DHT22;39167;52.794;6.892;2023-03-01T04:20:34;-2.30;99.90
53282;DHT22;39167;52.794;6.892;2023-03-01T04:23:01;-1.40;99.90
53282;DHT22;39167;52.794;6.892;2023-03-01T04:25:41;-2.10;99.90
53282;DHT22;39167;52.794;6.892;2023-03-01T04:28:09;-0.90;99.90
53282;DHT22;39167;52.794;6.892;2023-03-01T04:30:36;-1.00;99.90
53282;DHT22;39167;52.794;6.892;2023-03-01T04:33:06;-1.00;99.90
53282;DHT22;39167;52.794;6.892;2023-03-01T04:35:32;-2.40;99.90
53282;DHT22;39167;52.794;6.892;2023-03-01T04:37:58;-2.40;99.90
53282;DHT22;39167;52.794;6.892;2023-03-01T04:40:24;-2.40;99.90
53282;DHT22;39167;52.794;6.892;2023-03-01T04:42:50;-2.40;99.90
53282;DHT22;39167;52.794;6.892;2023-03-01T04:45:16;-2.40;99.90
53282;DHT22;39167;52.794;6.892;2023-03-01T04:47:43;-2.40;99.90
53282;DHT22;39167;52.794;6.892;2023-03-01T04:50:15;-0.60;99.90
53282;DHT22;39167;52.794;6.892;2023-03-01T04:52:41;-2.50;99.90
53282;DHT22;39167;52.794;6.892;2023-03-01T04:55:08;-2.60;99.90
53282;DHT22;39167;52.794;6.892;2023-03-01T04:57:34;-2.50;99.90
53282;DHT22;39167;52.794;6.892;2023-03-01T04:59:59;-2.50;99.90
53282;DHT22;39167;52.794;6.892;2023-03-01T05:02:25;-0.90;99.90
53282;DHT22;39167;52.794;6.892;2023-03-01T05:04:51;-2.60;99.90
53282;DHT22;39167;52.794;6.892;2023-03-01T05:07:17;-1.20;99.90
53282;DHT22;39167;52.794;6.892;2023-03-01T05:09:46;-1.80;99.90
53282;DHT22;39167;52.794;6.892;2023-03-01T05:12:15;-2.60;99.90
53282;DHT22;39167;52.794;6.892;2023-03-01T05:14:41;-2.60;99.90
53282;DHT22;39167;52.794;6.892;2023-03-01T05:17:07;-2.70;99.90
53282;DHT22;39167;52.794;6.892;2023-03-01T05:19:33;-1.10;99.90
53282;DHT22;39167;52.794;6.892;2023-03-01T05:21:59;-2.70;99.90
53282;DHT22;39167;52.794;6.892;2023-03-01T05:24:31;-1.50;99.90
53282;DHT22;39167;52.794;6.892;2023-03-01T05:26:58;-2.70;99.90
53282;DHT22;39167;52.794;6.892;2023-03-01T05:29:25;-2.70;99.90
53282;DHT22;39167;52.794;6.892;2023-03-01T05:31:56;-1.70;99.90
53282;DHT22;39167;52.794;6.892;2023-03-01T05:34:32;-1.00;99.90
53282;DHT22;39167;52.794;6.892;2023-03-01T05:36:58;-2.80;99.90
53282;DHT22;39167;52.794;6.892;2023-03-01T05:39:26;-3.00;99.90
53282;DHT22;39167;52.794;6.892;2023-03-01T05:41:54;-2.80;99.90
53282;DHT22;39167;52.794;6.892;2023-03-01T05:44:20;-2.30;99.90
53282;DHT22;39167;52.794;6.892;2023-03-01T05:46:46;-2.80;99.90
53282;DHT22;39167;52.794;6.892;2023-03-01T05:49:13;-2.90;99.90
53282;DHT22;39167;52.794;6.892;2023-03-01T05:51:40;-1.30;99.90
53282;DHT22;39167;52.794;6.892;2023-03-01T05:54:07;-2.90;99.90
53282;DHT22;39167;52.794;6.892;2023-03-01T05:56:37;-1.30;99.90
53282;DHT22;39167;52.794;6.892;2023-03-01T05:59:04;-3.00;99.90
53282;DHT22;39167;52.794;6.892;2023-03-01T06:01:34;-3.00;99.90
53282;DHT22;39167;52.794;6.892;2023-03-01T06:04:00;-2.90;99.90
53282;DHT22;39167;52.794;6.892;2023-03-01T06:06:26;-2.80;99.90
53282;DHT22;39167;52.794;6.892;2023-03-01T06:08:52;-3.00;99.90
53282;DHT22;39167;52.794;6.892;2023-03-01T06:11:19;-1.90;99.90
53282;DHT22;39167;52.794;6.892;2023-03-01T06:13:45;-2.20;99.90
53282;DHT22;39167;52.794;6.892;2023-03-01T06:16:12;-2.60;99.90
53282;DHT22;39167;52.794;6.892;2023-03-01T06:18:38;-3.00;99.90
53282;DHT22;39167;52.794;6.892;2023-03-01T06:21:05;-3.50;99.90
53282;DHT22;39167;52.794;6.892;2023-03-01T06:23:31;-2.10;99.90
53282;DHT22;39167;52.794;6.892;2023-03-01T06:25:57;-3.00;99.90
53282;DHT22;39167;52.794;6.892;2023-03-01T06:28:22;-3.00;99.90
53282;DHT22;39167;52.794;6.892;2023-03-01T06:30:50;-3.00;99.90
53282;DHT22;39167;52.794;6.892;2023-03-01T06:33:15;-3.00;99.90
53282;DHT22;39167;52.794;6.892;2023-03-01T06:35:41;-2.20;99.90
53282;DHT22;39167;52.794;6.892;2023-03-01T06:38:07;-2.90;99.90
53282;DHT22;39167;52.794;6.892;2023-03-01T06:40:33;-3.10;99.90
53282;DHT22;39167;52.794;6.892;2023-03-01T06:43:01;-3.10;99.90
53282;DHT22;39167;52.794;6.892;2023-03-01T06:45:27;-3.10;99.90
53282;DHT22;39167;52.794;6.892;2023-03-01T06:47:57;-3.10;99.90
53282;DHT22;39167;52.794;6.892;2023-03-01T06:50:26;-3.00;99.90
53282;DHT22;39167;52.794;6.892;2023-03-01T06:52:56;-1.60;99.90
53282;DHT22;39167;52.794;6.892;2023-03-01T06:55:21;-3.00;99.90
53282;DHT22;39167;52.794;6.892;2023-03-01T06:57:47;-3.10;99.90
53282;DHT22;39167;52.794;6.892;2023-03-01T07:00:13;-3.00;99.90
53282;DHT22;39167;52.794;6.892;2023-03-01T07:02:39;-3.00;99.90
53282;DHT22;39167;52.794;6.892;2023-03-01T07:05:05;-2.10;99.90
53282;DHT22;39167;52.794;6.892;2023-03-01T07:07:31;-3.00;99.90
53282;DHT22;39167;52.794;6.892;2023-03-01T07:09:57;-3.00;99.90
53282;DHT22;39167;52.794;6.892;2023-03-01T07:12:23;-3.00;99.90
53282;DHT22;39167;52.794;6.892;2023-03-01T07:14:48;-3.00;99.90
53282;DHT22;39167;52.794;6.892;2023-03-01T07:17:14;-3.00;99.90
53282;DHT22;39167;52.794;6.892;2023-03-01T07:19:40;-3.00;99.90
53282;DHT22;39167;52.794;6.892;2023-03-01T07:22:06;-1.50;99.90
53282;DHT22;39167;52.794;6.892;2023-03-01T07:24:33;-2.20;99.90
53282;DHT22;39167;52.794;6.892;2023-03-01T07:26:59;-2.20;99.90
53282;DHT22;39167;52.794;6.892;2023-03-01T07:29:25;-2.90;99.90
53282;DHT22;39167;52.794;6.892;2023-03-01T07:31:50;-2.90;99.90
53282;DHT22;39167;52.794;6.892;2023-03-01T07:34:16;-2.90;99.90
53282;DHT22;39167;52.794;6.892;2023-03-01T07:36:42;-3.30;99.90
53282;DHT22;39167;52.794;6.892;2023-03-01T07:39:09;-2.90;99.90
53282;DHT22;39167;52.794;6.892;2023-03-01T07:41:35;-2.90;99.90
53282;DHT22;39167;52.794;6.892;2023-03-01T07:44:01;-2.80;99.90
53282;DHT22;39167;52.794;6.892;2023-03-01T07:46:27;-2.80;99.90
53282;DHT22;39167;52.794;6.892;2023-03-01T07:48:53;-2.80;99.90
53282;DHT22;39167;52.794;6.892;2023-03-01T07:51:18;-2.70;99.90
53282;DHT22;39167;52.794;6.892;2023-03-01T07:53:46;-2.70;99.90
53282;DHT22;39167;52.794;6.892;2023-03-01T07:56:14;-2.70;99.90
53282;DHT22;39167;52.794;6.892;2023-03-01T07:58:42;-2.70;99.90
53282;DHT22;39167;52.794;6.892;2023-03-01T08:01:10;-2.70;99.90
53282;DHT22;39167;52.794;6.892;2023-03-01T08:03:36;-1.80;99.90
53282;DHT22;39167;52.794;6.892;2023-03-01T08:06:04;-2.60;99.90
53282;DHT22;39167;52.794;6.892;2023-03-01T08:08:30;-2.50;99.90
53282;DHT22;39167;52.794;6.892;2023-03-01T08:11:00;-2.50;99.90
53282;DHT22;39167;52.794;6.892;2023-03-01T08:13:26;-2.30;99.90
53282;DHT22;39167;52.794;6.892;2023-03-01T08:15:54;-2.20;99.90
53282;DHT22;39167;52.794;6.892;2023-03-01T08:18:21;-2.30;99.90
53282;DHT22;39167;52.794;6.892;2023-03-01T08:20:48;-1.50;99.90
53282;DHT22;39167;52.794;6.892;2023-03-01T08:23:13;-2.10;99.90
53282;DHT22;39167;52.794;6.892;2023-03-01T08:25:39;-2.00;99.90
53282;DHT22;39167;52.794;6.892;2023-03-01T08:28:05;-2.00;99.90
53282;DHT22;39167;52.794;6.892;2023-03-01T08:30:31;-1.80;99.90
53282;DHT22;39167;52.794;6.892;2023-03-01T08:32:57;-1.80;99.90
53282;DHT22;39167;52.794;6.892;2023-03-01T08:35:23;-1.70;99.90
53282;DHT22;39167;52.794;6.892;2023-03-01T08:37:48;-1.60;99.90
53282;DHT22;39167;52.794;6.892;2023-03-01T08:40:14;-1.50;99.90
53282;DHT22;39167;52.794;6.892;2023-03-01T08:42:41;-1.30;99.90
53282;DHT22;39167;52.794;6.892;2023-03-01T08:45:09;-1.20;99.90
53282;DHT22;39167;52.794;6.892;2023-03-01T08:47:35;-1.10;99.90
53282;DHT22;39167;52.794;6.892;2023-03-01T08:50:01;-0.90;99.90
53282;DHT22;39167;52.794;6.892;2023-03-01T08:52:27;-0.80;99.90
53282;DHT22;39167;52.794;6.892;2023-03-01T08:54:53;-0.70;99.90
53282;DHT22;39167;52.794;6.892;2023-03-01T08:57:19;-0.60;99.90
53282;DHT22;39167;52.794;6.892;2023-03-01T08:59:44;-0.50;99.90
53282;DHT22;39167;52.794;6.892;2023-03-01T09:02:13;0.40;99.90
53282;DHT22;39167;52.794;6.892;2023-03-01T09:04:39;-0.20;99.90
53282;DHT22;39167;52.794;6.892;2023-03-01T09:07:05;-0.10;99.90
53282;DHT22;39167;52.794;6.892;2023-03-01T09:09:31;0.00;99.90
53282;DHT22;39167;52.794;6.892;2023-03-01T09:11:57;0.20;99.90
53282;DHT22;39167;52.794;6.892;2023-03-01T09:14:22;0.30;99.90
53282;DHT22;39167;52.794;6.892;2023-03-01T09:16:48;0.50;99.90
53282;DHT22;39167;52.794;6.892;2023-03-01T09:19:14;0.60;99.90
53282;DHT22;39167;52.794;6.892;2023-03-01T09:21:41;0.80;99.90
53282;DHT22;39167;52.794;6.892;2023-03-01T09:24:13;2.00;99.90
53282;DHT22;39167;52.794;6.892;2023-03-01T09:26:39;1.10;99.90
53282;DHT22;39167;52.794;6.892;2023-03-01T09:29:05;1.30;99.90
53282;DHT22;39167;52.794;6.892;2023-03-01T09:31:30;1.80;99.90
53282;DHT22;39167;52.794;6.892;2023-03-01T09:33:56;1.60;99.90
53282;DHT22;39167;52.794;6.892;2023-03-01T09:36:24;1.70;99.90
53282;DHT22;39167;52.794;6.892;2023-03-01T09:38:51;2.40;99.90
53282;DHT22;39167;52.794;6.892;2023-03-01T09:41:22;2.20;99.90
53282;DHT22;39167;52.794;6.892;2023-03-01T09:43:56;2.20;99.90
53282;DHT22;39167;52.794;6.892;2023-03-01T09:46:25;3.20;99.90
53282;DHT22;39167;52.794;6.892;2023-03-01T09:48:55;3.00;99.90
53282;DHT22;39167;52.794;6.892;2023-03-01T09:51:35;2.40;99.90
53282;DHT22;39167;52.794;6.892;2023-03-01T09:54:03;2.50;99.90
53282;DHT22;39167;52.794;6.892;2023-03-01T09:56:32;2.70;99.90
53282;DHT22;39167;52.794;6.892;2023-03-01T10:02:41;2.80;99.90
53282;DHT22;39167;52.794;6.892;2023-03-01T10:04:56;3.00;99.90
53282;DHT22;39167;52.794;6.892;2023-03-01T10:07:34;3.10;99.90
53282;DHT22;39167;52.794;6.892;2023-03-01T10:10:06;3.10;99.90
53282;DHT22;39167;52.794;6.892;2023-03-01T10:12:39;3.20;99.90
53282;DHT22;39167;52.794;6.892;2023-03-01T10:15:16;3.50;99.90
53282;DHT22;39167;52.794;6.892;2023-03-01T10:17:48;3.40;99.90
53282;DHT22;39167;52.794;6.892;2023-03-01T10:20:31;4.00;99.90
53282;DHT22;39167;52.794;6.892;2023-03-01T10:22:59;3.60;99.90
53282;DHT22;39167;52.794;6.892;2023-03-01T10:25:47;4.30;99.90
53282;DHT22;39167;52.794;6.892;2023-03-01T10:30:46;3.80;99.90
53282;DHT22;39167;52.794;6.892;2023-03-01T10:33:24;3.90;99.90
53282;DHT22;39167;52.794;6.892;2023-03-01T10:35:51;4.20;99.90
53282;DHT22;39167;52.794;6.892;2023-03-01T10:38:18;4.10;99.90
53282;DHT22;39167;52.794;6.892;2023-03-01T10:40:58;4.20;99.90
53282;DHT22;39167;52.794;6.892;2023-03-01T10:43:25;4.50;99.90
53282;DHT22;39167;52.794;6.892;2023-03-01T10:45:51;4.40;99.90
53282;DHT22;39167;52.794;6.892;2023-03-01T10:53:49;4.50;99.90
53282;DHT22;39167;52.794;6.892;2023-03-01T10:56:16;4.50;99.90
53282;DHT22;39167;52.794;6.892;2023-03-01T10:58:57;4.60;99.90
53282;DHT22;39167;52.794;6.892;2023-03-01T11:01:33;4.70;99.90
53282;DHT22;39167;52.794;6.892;2023-03-01T11:06:29;4.80;99.90
53282;DHT22;39167;52.794;6.892;2023-03-01T11:08:54;5.20;99.90
53282;DHT22;39167;52.794;6.892;2023-03-01T11:11:34;4.90;99.90
53282;DHT22;39167;52.794;6.892;2023-03-01T11:14:17;5.40;99.90
53282;DHT22;39167;52.794;6.892;2023-03-01T11:16:49;5.10;99.90
53282;DHT22;39167;52.794;6.892;2023-03-01T11:19:23;5.20;99.90
53282;DHT22;39167;52.794;6.892;2023-03-01T11:21:56;5.20;99.90
53282;DHT22;39167;52.794;6.892;2023-03-01T11:27:00;5.40;99.90
53282;DHT22;39167;52.794;6.892;2023-03-01T11:29:35;5.40;99.90
53282;DHT22;39167;52.794;6.892;2023-03-01T11:32:06;5.50;99.90
53282;DHT22;39167;52.794;6.892;2023-03-01T11:35:25;5.50;99.90
53282;DHT22;39167;52.794;6.892;2023-03-01T11:37:50;5.60;99.90
53282;DHT22;39167;52.794;6.892;2023-03-01T11:40:34;5.70;99.90
53282;DHT22;39167;52.794;6.892;2023-03-01T11:43:22;5.80;99.90
53282;DHT22;39167;52.794;6.892;2023-03-01T11:48:56;5.90;99.90
53282;DHT22;39167;52.794;6.892;2023-03-01T11:54:44;6.10;99.90
53282;DHT22;39167;52.794;6.892;2023-03-01T12:08:35;6.70;99.90
53282;DHT22;39167;52.794;6.892;2023-03-01T12:11:24;6.40;99.90
53282;DHT22;39167;52.794;6.892;2023-03-01T12:22:30;6.50;99.90
53282;DHT22;39167;52.794;6.892;2023-03-01T12:25:25;6.70;99.90
53282;DHT22;39167;52.794;6.892;2023-03-01T12:28:16;6.70;99.90
53282;DHT22;39167;52.794;6.892;2023-03-01T12:31:01;6.70;99.90
53282;DHT22;39167;52.794;6.892;2023-03-01T12:39:36;6.90;99.90
53282;DHT22;39167;52.794;6.892;2023-03-01T12:42:07;6.90;99.90
53282;DHT22;39167;52.794;6.892;2023-03-01T12:47:47;6.90;99.90
53282;DHT22;39167;52.794;6.892;2023-03-01T12:50:23;7.70;99.90
53282;DHT22;39167;52.794;6.892;2023-03-01T12:52:55;7.00;99.90
53282;DHT22;39167;52.794;6.892;2023-03-01T12:58:12;7.20;99.90
53282;DHT22;39167;52.794;6.892;2023-03-01T13:00:53;7.50;99.90
53282;DHT22;39167;52.794;6.892;2023-03-01T13:03:26;7.20;99.90
53282;DHT22;39167;52.794;6.892;2023-03-01T13:06:22;7.20;99.90
53282;DHT22;39167;52.794;6.892;2023-03-01T13:09:02;7.30;99.90
53282;DHT22;39167;52.794;6.892;2023-03-01T13:11:29;7.30;99.90
53282;DHT22;39167;52.794;6.892;2023-03-01T13:16:45;7.40;99.90
53282;DHT22;39167;52.794;6.892;2023-03-01T13:19:23;7.50;99.90
53282;DHT22;39167;52.794;6.892;2023-03-01T13:21:52;7.50;99.90
53282;DHT22;39167;52.794;6.892;2023-03-01T13:24:41;7.50;99.90
53282;DHT22;39167;52.794;6.892;2023-03-01T13:32:28;7.60;99.90
53282;DHT22;39167;52.794;6.892;2023-03-01T13:35:02;7.60;99.90
53282;DHT22;39167;52.794;6.892;2023-03-01T13:37:39;7.60;99.90
53282;DHT22;39167;52.794;6.892;2023-03-01T13:42:54;7.70;99.90
53282;DHT22;39167;52.794;6.892;2023-03-01T13:45:39;7.70;99.90
53282;DHT22;39167;52.794;6.892;2023-03-01T13:48:11;7.70;99.90
53282;DHT22;39167;52.794;6.892;2023-03-01T13:50:43;7.80;99.90
53282;DHT22;39167;52.794;6.892;2023-03-01T13:53:18;7.80;99.90
53282;DHT22;39167;52.794;6.892;2023-03-01T13:55:47;7.80;99.90
53282;DHT22;39167;52.794;6.892;2023-03-01T13:58:26;7.80;99.90
53282;DHT22;39167;52.794;6.892;2023-03-01T14:00:58;7.90;99.90
53282;DHT22;39167;52.794;6.892;2023-03-01T14:03:27;7.90;99.90
53282;DHT22;39167;52.794;6.892;2023-03-01T14:06:13;7.90;99.90
53282;DHT22;39167;52.794;6.892;2023-03-01T14:08:39;7.90;99.90
53282;DHT22;39167;52.794;6.892;2023-03-01T14:14:33;8.00;99.90
53282;DHT22;39167;52.794;6.892;2023-03-01T14:17:19;8.10;99.90
53282;DHT22;39167;52.794;6.892;2023-03-01T14:19:56;8.00;99.90
53282;DHT22;39167;52.794;6.892;2023-03-01T14:22:23;8.00;99.90
53282;DHT22;39167;52.794;6.892;2023-03-01T14:24:55;8.00;99.90
53282;DHT22;39167;52.794;6.892;2023-03-01T14:27:25;8.00;99.90
53282;DHT22;39167;52.794;6.892;2023-03-01T14:30:00;8.00;99.90
53282;DHT22;39167;52.794;6.892;2023-03-01T14:32:28;8.00;99.90
53282;DHT22;39167;52.794;6.892;2023-03-01T14:34:56;8.00;99.90
53282;DHT22;39167;52.794;6.892;2023-03-01T14:39:53;8.00;99.90
53282;DHT22;39167;52.794;6.892;2023-03-01T14:42:21;8.00;99.90
53282;DHT22;39167;52.794;6.892;2023-03-01T14:44:50;8.00;99.90
53282;DHT22;39167;52.794;6.892;2023-03-01T14:47:27;7.90;99.90
53282;DHT22;39167;52.794;6.892;2023-03-01T14:52:36;7.90;99.90
53282;DHT22;39167;52.794;6.892;2023-03-01T14:55:11;7.90;99.90
53282;DHT22;39167;52.794;6.892;2023-03-01T14:57:43;7.90;99.90
53282;DHT22;39167;52.794;6.892;2023-03-01T15:00:30;7.90;99.90
53282;DHT22;39167;52.794;6.892;2023-03-01T15:03:05;7.80;99.90
53282;DHT22;39167;52.794;6.892;2023-03-01T15:05:35;7.80;99.90
53282;DHT22;39167;52.794;6.892;2023-03-01T15:08:03;7.80;99.90
53282;DHT22;39167;52.794;6.892;2023-03-01T15:10:35;7.80;99.90
53282;DHT22;39167;52.794;6.892;2023-03-01T15:13:13;7.80;99.90
53282;DHT22;39167;52.794;6.892;2023-03-01T15:15:42;7.70;99.90
53282;DHT22;39167;52.794;6.892;2023-03-01T15:18:25;7.70;99.90
53282;DHT22;39167;52.794;6.892;2023-03-01T15:20:52;7.70;99.90
53282;DHT22;39167;52.794;6.892;2023-03-01T15:23:19;7.70;99.90
53282;DHT22;39167;52.794;6.892;2023-03-01T15:25:46;7.70;99.90
53282;DHT22;39167;52.794;6.892;2023-03-01T15:28:19;7.70;99.90
53282;DHT22;39167;52.794;6.892;2023-03-01T15:30:54;7.70;99.90
53282;DHT22;39167;52.794;6.892;2023-03-01T15:33:29;7.70;99.90
53282;DHT22;39167;52.794;6.892;2023-03-01T15:36:01;7.60;99.90
53282;DHT22;39167;52.794;6.892;2023-03-01T15:40:58;7.60;99.90
53282;DHT22;39167;52.794;6.892;2023-03-01T15:46:04;7.60;99.90
53282;DHT22;39167;52.794;6.892;2023-03-01T15:48:30;7.60;99.90
53282;DHT22;39167;52.794;6.892;2023-03-01T15:50:58;7.50;99.90
53282;DHT22;39167;52.794;6.892;2023-03-01T15:53:24;7.90;99.90
53282;DHT22;39167;52.794;6.892;2023-03-01T15:55:52;7.50;99.90
53282;DHT22;39167;52.794;6.892;2023-03-01T15:58:20;7.50;99.90
53282;DHT22;39167;52.794;6.892;2023-03-01T16:00:47;7.40;99.90
53282;DHT22;39167;52.794;6.892;2023-03-01T16:03:29;7.40;99.90
53282;DHT22;39167;52.794;6.892;2023-03-01T16:05:55;7.40;99.90
53282;DHT22;39167;52.794;6.892;2023-03-01T16:08:20;7.70;99.90
53282;DHT22;39167;52.794;6.892;2023-03-01T16:10:46;7.30;99.90
53282;DHT22;39167;52.794;6.892;2023-03-01T16:13:15;7.30;99.90
53282;DHT22;39167;52.794;6.892;2023-03-01T16:15:41;7.20;99.90
53282;DHT22;39167;52.794;6.892;2023-03-01T16:18:07;7.20;99.90
53282;DHT22;39167;52.794;6.892;2023-03-01T16:20:36;7.10;99.90
53282;DHT22;39167;52.794;6.892;2023-03-01T16:23:03;7.10;99.90
53282;DHT22;39167;52.794;6.892;2023-03-01T16:25:30;7.10;99.90
53282;DHT22;39167;52.794;6.892;2023-03-01T16:27:57;7.00;99.90
53282;DHT22;39167;52.794;6.892;2023-03-01T16:30:25;6.90;99.90
53282;DHT22;39167;52.794;6.892;2023-03-01T16:32:51;6.90;99.90
53282;DHT22;39167;52.794;6.892;2023-03-01T16:35:19;6.80;99.90
53282;DHT22;39167;52.794;6.892;2023-03-01T16:37:46;7.10;99.90
53282;DHT22;39167;52.794;6.892;2023-03-01T16:40:24;6.80;99.90
53282;DHT22;39167;52.794;6.892;2023-03-01T16:42:51;6.70;99.90
53282;DHT22;39167;52.794;6.892;2023-03-01T16:45:18;6.60;99.90
53282;DHT22;39167;52.794;6.892;2023-03-01T16:47:44;6.60;99.90
53282;DHT22;39167;52.794;6.892;2023-03-01T16:50:10;6.50;99.90
53282;DHT22;39167;52.794;6.892;2023-03-01T16:52:36;6.50;99.90
53282;DHT22;39167;52.794;6.892;2023-03-01T16:55:03;6.60;99.90
53282;DHT22;39167;52.794;6.892;2023-03-01T16:57:29;6.40;99.90
53282;DHT22;39167;52.794;6.892;2023-03-01T16:59:55;6.30;99.90
53282;DHT22;39167;52.794;6.892;2023-03-01T17:02:22;6.30;99.90
53282;DHT22;39167;52.794;6.892;2023-03-01T17:04:55;6.20;99.90
53282;DHT22;39167;52.794;6.892;2023-03-01T17:07:21;6.40;99.90
53282;DHT22;39167;52.794;6.892;2023-03-01T17:09:47;6.20;99.90
53282;DHT22;39167;52.794;6.892;2023-03-01T17:12:14;6.10;99.90
53282;DHT22;39167;52.794;6.892;2023-03-01T17:14:40;6.00;99.90
53282;DHT22;39167;52.794;6.892;2023-03-01T17:17:10;6.00;99.90
53282;DHT22;39167;52.794;6.892;2023-03-01T17:19:36;6.00;99.90
53282;DHT22;39167;52.794;6.892;2023-03-01T17:22:10;5.90;99.90
53282;DHT22;39167;52.794;6.892;2023-03-01T17:24:37;5.80;99.90
53282;DHT22;39167;52.794;6.892;2023-03-01T17:27:04;5.80;99.90